Time;durP1;ratioP1;P1;durP2;ratioP2;P2;SDS_P1;SDS_P2;PMS_P1;PMS_P2;Temp;Humidity;BMP_temperature;BMP_pressure;BME280_temperature;BME280_humidity;BME280_pressure;Samples;Min_cycle;Max_cycle;Signal;HPM_P1;HPM_P2
2021/09/07 00:01:43;;;;;;;26.75;15.85;;;;;;;12.06;61.79;102529.32;1712748;83;20916;-86
2021/09/07 00:04:11;;;;;;;32.80;18.57;;;;;;;12.04;61.87;102529.38;1712440;83;21012;-86
2021/09/07 00:06:38;;;;;;;31.12;17.35;;;;;;;12.03;61.80;102533.36;1712778;83;22002;-84
2021/09/07 00:09:06;;;;;;;29.42;17.48;;;;;;;12.03;61.67;102535.95;1712709;83;20904;-87
2021/09/07 00:11:34;;;;;;;36.45;20.23;;;;;;;11.99;61.79;102535.69;1713513;83;21455;-86
2021/09/07 00:14:03;;;;;;;37.78;19.73;;;;;;;11.96;62.01;102535.37;1713514;83;21462;-87
2021/09/07 00:16:33;;;;;;;33.25;19.05;;;;;;;11.92;62.20;102531.20;1713146;83;21000;-85
2021/09/07 00:19:03;;;;;;;32.75;18.77;;;;;;;11.90;62.40;102536.08;1712547;83;20952;-86
2021/09/07 00:21:29;;;;;;;34.00;19.30;;;;;;;11.87;62.63;102532.30;1712648;83;20932;-86
2021/09/07 00:23:58;;;;;;;32.28;18.20;;;;;;;11.86;62.45;102529.30;1712574;83;21034;-85
2021/09/07 00:26:26;;;;;;;34.15;18.42;;;;;;;11.86;62.47;102539.71;1712441;83;21038;-87
2021/09/07 00:28:54;;;;;;;32.42;18.50;;;;;;;11.86;62.56;102544.91;1712537;83;20952;-86
2021/09/07 00:31:22;;;;;;;36.73;17.73;;;;;;;11.85;62.48;102538.00;1712399;83;21152;-86
2021/09/07 00:33:53;;;;;;;39.58;18.73;;;;;;;11.84;62.58;102539.76;1712488;83;20967;-85
2021/09/07 00:36:20;;;;;;;31.60;17.87;;;;;;;11.84;62.50;102538.45;1712525;83;21023;-86
2021/09/07 00:38:47;;;;;;;31.87;17.70;;;;;;;11.82;62.50;102536.39;1712587;83;20951;-86
2021/09/07 00:41:14;;;;;;;29.00;17.05;;;;;;;11.81;62.47;102539.03;1712791;83;21668;-87
2021/09/07 00:43:43;;;;;;;24.27;14.87;;;;;;;11.77;62.21;102538.34;1712830;83;21967;-85
2021/09/07 00:46:10;;;;;;;26.33;13.95;;;;;;;11.75;62.02;102540.14;1712527;83;21006;-87
2021/09/07 00:48:39;;;;;;;22.70;12.30;;;;;;;11.74;61.78;102541.08;1712704;83;20913;-88
2021/09/07 00:51:07;;;;;;;24.02;12.63;;;;;;;11.72;61.43;102535.52;1712607;83;21023;-87
2021/09/07 00:53:35;;;;;;;20.70;11.80;;;;;;;11.69;61.35;102534.71;1712631;83;21031;-86
2021/09/07 00:56:02;;;;;;;20.65;11.88;;;;;;;11.65;61.15;102530.98;1712639;83;21149;-86
2021/09/07 00:58:30;;;;;;;20.05;10.80;;;;;;;11.61;61.04;102531.56;1712701;83;20865;-86
2021/09/07 01:00:58;;;;;;;22.85;10.80;;;;;;;11.60;60.93;102527.73;1712674;83;21022;-86
2021/09/07 01:03:26;;;;;;;19.65;9.98;;;;;;;11.59;60.88;102524.73;1712799;83;20960;-86
2021/09/07 01:05:54;;;;;;;18.73;10.20;;;;;;;11.58;60.88;102528.27;1712644;83;20972;-86
2021/09/07 01:08:20;;;;;;;25.52;10.80;;;;;;;11.56;60.80;102528.31;1693657;83;21146;-86
2021/09/07 01:10:49;;;;;;;20.72;10.63;;;;;;;11.57;61.04;102525.27;1712230;83;20937;-86
2021/09/07 01:13:17;;;;;;;17.45;10.18;;;;;;;11.56;61.08;102528.31;1712363;83;21089;-86
2021/09/07 01:15:45;;;;;;;18.73;9.45;;;;;;;11.56;60.94;102528.31;1712747;83;21035;-86
2021/09/07 01:18:12;;;;;;;17.17;9.88;;;;;;;11.56;61.06;102528.31;1712598;83;21019;-86
2021/09/07 01:20:39;;;;;;;21.12;10.13;;;;;;;11.57;60.93;102531.77;1712696;83;21959;-86
2021/09/07 01:23:06;;;;;;;18.15;9.03;;;;;;;11.57;60.86;102530.02;1712824;83;20991;-86
2021/09/07 01:25:33;;;;;;;19.17;9.20;;;;;;;11.57;60.70;102529.16;1713342;83;21447;-86
2021/09/07 01:28:00;;;;;;;19.55;8.70;;;;;;;11.54;60.63;102529.29;1712718;83;21079;-87
2021/09/07 01:30:29;;;;;;;13.88;8.40;;;;;;;11.52;60.72;102534.53;1712966;83;21003;-87
2021/09/07 01:32:57;;;;;;;11.75;7.15;;;;;;;11.51;60.67;102525.52;1712956;83;21829;-86
2021/09/07 01:35:25;;;;;;;12.58;6.42;;;;;;;11.50;60.59;102524.66;1712790;83;21467;-86
2021/09/07 01:37:52;;;;;;;12.45;6.33;;;;;;;11.49;60.38;102528.16;1712657;83;21016;-86
2021/09/07 01:40:18;;;;;;;16.65;6.97;;;;;;;11.47;60.44;102526.53;1713024;83;21590;-88
2021/09/07 01:42:45;;;;;;;11.22;6.62;;;;;;;11.47;60.34;102525.23;1712957;83;21044;-86
2021/09/07 01:45:14;;;;;;;14.78;5.62;;;;;;;11.45;60.18;102524.02;1713012;83;21138;-86
2021/09/07 01:47:41;;;;;;;12.18;5.75;;;;;;;11.45;60.24;102523.16;1712771;83;20888;-86
2021/09/07 01:50:10;;;;;;;10.75;6.30;;;;;;;11.42;60.37;102528.01;1714667;83;21012;-87
2021/09/07 01:52:37;;;;;;;12.33;5.92;;;;;;;11.43;60.28;102532.76;1714755;83;20932;-85
2021/09/07 01:55:04;;;;;;;10.28;5.47;;;;;;;11.40;60.32;102520.73;1714094;83;20893;-86
2021/09/07 01:57:33;;;;;;;11.93;5.08;;;;;;;11.40;60.37;102519.88;1712738;83;21127;-87
2021/09/07 02:00:00;;;;;;;8.90;4.78;;;;;;;11.39;60.06;102519.03;1712676;83;21067;-87
2021/09/07 02:02:29;;;;;;;9.13;5.12;;;;;;;11.35;59.84;102517.94;1712932;83;21514;-85
2021/09/07 02:04:58;;;;;;;9.58;5.03;;;;;;;11.33;59.82;102521.03;1712692;83;20940;-84
2021/09/07 02:07:25;;;;;;;8.20;5.12;;;;;;;11.29;59.60;102516.88;1712742;83;21087;-86
2021/09/07 02:09:53;;;;;;;9.35;4.95;;;;;;;11.26;59.73;102516.55;1713678;83;21171;-86
2021/09/07 02:12:20;;;;;;;9.05;4.75;;;;;;;11.24;59.83;102515.75;1713599;83;21605;-86
2021/09/07 02:14:50;;;;;;;9.40;4.25;;;;;;;11.20;59.88;102511.57;1713929;83;20967;-86
2021/09/07 02:17:17;;;;;;;9.50;4.85;;;;;;;11.20;60.00;102514.65;1713651;83;20924;-86
2021/09/07 02:19:45;;;;;;;9.38;4.80;;;;;;;11.20;60.09;102515.47;1713846;80;21534;-87
2021/09/07 02:22:13;;;;;;;10.55;5.20;;;;;;;11.20;60.16;102512.05;1713129;83;21134;-87
2021/09/07 02:24:41;;;;;;;9.80;4.62;;;;;;;11.21;60.17;102513.72;1713423;83;21444;-86
2021/09/07 02:27:08;;;;;;;11.28;4.85;;;;;;;11.21;59.99;102515.88;1715042;83;21427;-87
2021/09/07 02:29:35;;;;;;;12.85;5.15;;;;;;;11.19;60.09;102514.24;1713037;83;21035;-86
2021/09/07 02:32:04;;;;;;;14.83;6.42;;;;;;;11.17;60.39;102517.37;1694522;83;20896;-87
2021/09/07 02:34:34;;;;;;;13.20;4.92;;;;;;;11.13;60.60;102512.30;1713212;83;21127;-87
2021/09/07 02:37:01;;;;;;;10.08;5.53;;;;;;;11.12;60.65;102516.23;1713343;83;21514;-86
2021/09/07 02:39:28;;;;;;;10.93;5.55;;;;;;;11.11;60.77;102515.83;1713456;83;20968;-86
2021/09/07 02:41:54;;;;;;;8.85;5.28;;;;;;;11.10;60.84;102515.45;1713451;83;21044;-86
2021/09/07 02:44:24;;;;;;;9.63;5.12;;;;;;;11.08;61.06;102519.84;1712792;83;21024;-87
2021/09/07 02:46:52;;;;;;;7.62;4.62;;;;;;;11.07;61.13;102517.70;1712911;83;20925;-87
2021/09/07 02:49:20;;;;;;;7.95;4.95;;;;;;;11.07;61.12;102519.48;1712937;83;21602;-86
2021/09/07 02:51:49;;;;;;;9.80;5.17;;;;;;;11.05;61.22;102519.52;1713135;83;20902;-86
2021/09/07 02:54:17;;;;;;;12.45;5.83;;;;;;;11.04;61.33;102526.91;1713064;83;21016;-86
2021/09/07 02:56:46;;;;;;;12.40;5.20;;;;;;;11.04;61.36;102532.11;1712855;83;20983;-86
2021/09/07 02:59:13;;;;;;;9.15;5.22;;;;;;;11.03;61.29;102529.58;1712715;83;21728;-86
2021/09/07 03:01:40;;;;;;;13.05;5.42;;;;;;;11.01;61.37;102528.33;1712744;83;21509;-86
2021/09/07 03:04:08;;;;;;;10.63;5.37;;;;;;;11.02;61.31;102534.38;1712859;83;20987;-86
2021/09/07 03:06:36;;;;;;;11.18;6.17;;;;;;;11.02;61.18;102531.78;1712934;83;20991;-85
2021/09/07 03:09:05;;;;;;;11.50;6.12;;;;;;;11.03;61.25;102539.98;1712937;83;21557;-85
2021/09/07 03:11:33;;;;;;;13.62;6.03;;;;;;;11.04;61.02;102535.19;1712771;83;21538;-86
2021/09/07 03:14:02;;;;;;;14.03;6.35;;;;;;;11.05;60.88;102539.00;1712801;83;21511;-87
2021/09/07 03:16:33;;;;;;;13.93;6.83;;;;;;;11.05;60.65;102539.45;1713024;83;20995;-86
2021/09/07 03:19:01;;;;;;;11.15;5.90;;;;;;;11.04;60.55;102542.50;1713438;83;20963;-86
2021/09/07 03:21:29;;;;;;;10.82;6.35;;;;;;;11.05;60.73;102544.65;1713045;83;21549;-85
2021/09/07 03:23:59;;;;;;;20.72;6.60;;;;;;;11.06;60.79;102544.61;1712559;83;21933;-86
2021/09/07 03:26:27;;;;;;;15.32;6.75;;;;;;;11.06;60.82;102548.50;1712689;83;20948;-86
2021/09/07 03:28:59;;;;;;;12.20;6.08;;;;;;;11.06;60.67;102545.05;1712797;83;21086;-86
2021/09/07 03:31:27;;;;;;;12.33;6.10;;;;;;;11.03;60.53;102549.06;1712457;83;20931;-86
2021/09/07 03:33:54;;;;;;;10.95;6.17;;;;;;;10.98;60.79;102555.72;1712748;83;20900;-87
2021/09/07 03:36:22;;;;;;;24.50;7.95;;;;;;;10.92;60.74;102554.66;1712606;83;21562;-87
2021/09/07 03:38:50;;;;;;;13.48;7.05;;;;;;;10.85;60.70;102555.78;1712420;83;21478;-87
2021/09/07 03:41:17;;;;;;;15.68;5.97;;;;;;;10.77;60.57;102556.98;1712424;83;21020;-87
2021/09/07 03:43:45;;;;;;;14.28;6.20;;;;;;;10.69;60.59;102561.62;1712631;83;21038;-87
2021/09/07 03:46:15;;;;;;;12.47;5.85;;;;;;;10.63;60.42;102560.92;1712759;83;20979;-87
2021/09/07 03:48:44;;;;;;;16.90;6.37;;;;;;;10.59;60.37;102564.52;1712606;83;21161;-86
2021/09/07 03:51:15;;;;;;;17.60;5.67;;;;;;;10.56;60.17;102561.22;1712219;83;20939;-86
2021/09/07 03:53:47;;;;;;;14.95;5.53;;;;;;;10.54;60.20;102564.30;1712591;83;21004;-87
2021/09/07 03:56:16;;;;;;;12.98;6.00;;;;;;;10.54;59.91;102562.55;1712761;83;20984;-87
2021/09/07 03:58:46;;;;;;;17.20;5.45;;;;;;;10.55;59.75;102571.19;1712626;83;21035;-86
2021/09/07 04:01:16;;;;;;;11.48;6.08;;;;;;;10.57;59.67;102570.67;1712887;83;21155;-85
2021/09/07 04:03:43;;;;;;;10.90;5.45;;;;;;;10.59;59.96;102567.11;1713113;83;21463;-85
2021/09/07 04:06:11;;;;;;;17.40;6.20;;;;;;;10.62;59.80;102569.59;1712758;83;21451;-85
2021/09/07 04:08:39;;;;;;;13.55;6.67;;;;;;;10.63;59.85;102564.81;1712981;83;20967;-86
2021/09/07 04:11:09;;;;;;;17.67;5.92;;;;;;;10.65;60.15;102565.22;1712935;83;20936;-88
2021/09/07 04:13:37;;;;;;;11.83;5.60;;;;;;;10.66;60.00;102571.64;1712805;83;21137;-89
2021/09/07 04:16:04;;;;;;;16.90;5.50;;;;;;;10.64;59.62;102566.97;1712608;83;20949;-86
2021/09/07 04:18:32;;;;;;;15.68;6.17;;;;;;;10.62;59.72;102572.20;1712826;83;20899;-89
2021/09/07 04:20:59;;;;;;;14.70;5.90;;;;;;;10.62;59.88;102571.38;1712757;83;20991;-86
2021/09/07 04:23:25;;;;;;;16.10;5.87;;;;;;;10.63;60.13;102579.09;1712860;83;21039;-87
2021/09/07 04:25:54;;;;;;;16.85;5.62;;;;;;;10.62;60.37;102574.79;1713104;83;21934;-87
2021/09/07 04:28:23;;;;;;;25.32;6.08;;;;;;;10.61;60.59;102572.27;1712663;83;21048;-86
2021/09/07 04:30:50;;;;;;;17.57;5.67;;;;;;;10.61;60.76;102574.42;1712700;83;21094;-86
2021/09/07 04:33:17;;;;;;;14.83;5.28;;;;;;;10.66;60.74;102572.94;1712650;83;21046;-86
2021/09/07 04:35:43;;;;;;;12.63;5.37;;;;;;;10.73;60.73;102580.05;1712526;83;20948;-88
2021/09/07 04:38:10;;;;;;;14.40;5.65;;;;;;;10.79;60.74;102581.98;1712587;83;21097;-86
2021/09/07 04:40:37;;;;;;;21.75;6.28;;;;;;;10.84;60.40;102578.78;1712363;83;20912;-87
2021/09/07 04:43:04;;;;;;;15.25;5.90;;;;;;;10.86;60.25;102578.27;1712712;83;20900;-88
2021/09/07 04:45:32;;;;;;;19.32;6.65;;;;;;;10.89;60.27;102578.15;1712446;83;20995;-88
2021/09/07 04:47:59;;;;;;;19.37;7.00;;;;;;;10.93;60.54;102577.59;1712842;83;21086;-90
2021/09/07 04:50:27;;;;;;;14.33;5.25;;;;;;;10.98;60.39;102581.70;1711913;83;21723;-85
2021/09/07 04:52:54;;;;;;;16.77;5.53;;;;;;;11.04;60.66;102580.65;1706296;84;20923;-87
2021/09/07 04:55:21;;;;;;;15.23;6.17;;;;;;;11.09;60.74;102579.56;1706440;84;20931;-87
2021/09/07 04:57:52;;;;;;;14.05;6.17;;;;;;;11.14;60.47;102580.22;1706291;84;21058;-86
2021/09/07 05:00:19;;;;;;;20.43;6.35;;;;;;;11.21;59.96;102576.94;1706366;84;21076;-84
2021/09/07 05:02:46;;;;;;;58.40;8.80;;;;;;;11.28;59.84;102581.45;1706361;84;21939;-87
2021/09/07 05:05:13;;;;;;;22.05;7.70;;;;;;;11.34;59.98;102580.77;1706229;84;21430;-84
2021/09/07 05:07:40;;;;;;;36.93;14.95;;;;;;;11.41;59.88;102591.33;1706348;84;21043;-86
2021/09/07 05:10:08;;;;;;;38.63;14.03;;;;;;;11.49;59.63;102590.56;1706057;84;21022;-86
2021/09/07 05:12:40;;;;;;;36.77;13.03;;;;;;;11.56;59.25;102594.62;1705799;84;21042;-86
2021/09/07 05:15:09;;;;;;;31.25;13.50;;;;;;;11.61;59.23;102596.57;1705242;84;21007;-85
2021/09/07 05:17:37;;;;;;;34.20;13.65;;;;;;;11.71;59.28;102598.86;1706264;84;20966;-85
2021/09/07 05:20:05;;;;;;;38.08;14.78;;;;;;;11.79;59.25;102600.24;1706324;84;20951;-86
2021/09/07 05:22:32;;;;;;;39.13;13.00;;;;;;;11.86;59.26;102596.48;1706145;84;21137;-87
2021/09/07 05:25:04;;;;;;;33.83;12.78;;;;;;;11.95;59.15;102596.56;1705944;84;21014;-86
2021/09/07 05:27:48;;;;;;;;;;;;;;;;;;;;;
2021/09/07 05:30:12;;;;;;;73.10;13.75;;;;;;;12.12;59.29;102598.02;1703445;82;21022;-87
2021/09/07 05:32:39;;;;;;;72.00;13.60;;;;;;;12.22;59.57;102600.61;1681681;84;21078;-86
2021/09/07 05:35:09;;;;;;;53.30;11.45;;;;;;;12.31;59.65;102595.49;1706193;84;21096;-89
2021/09/07 05:37:39;;;;;;;35.10;9.13;;;;;;;12.41;59.67;102598.09;1706238;84;20951;-87
2021/09/07 05:40:12;;;;;;;32.63;7.40;;;;;;;12.50;59.74;102597.70;1705734;84;21166;-89
2021/09/07 05:42:43;;;;;;;35.55;7.30;;;;;;;12.59;59.76;102595.54;1706526;84;21011;-87
2021/09/07 05:45:15;;;;;;;16.97;4.87;;;;;;;12.69;59.88;102596.83;1705764;84;20947;-87
2021/09/07 05:47:42;;;;;;;21.40;5.83;;;;;;;12.81;59.82;102602.39;1706298;84;21103;-87
2021/09/07 05:50:10;;;;;;;22.75;5.37;;;;;;;12.92;59.78;102599.72;1705624;84;21002;-89
2021/09/07 05:52:37;;;;;;;13.40;4.42;;;;;;;13.05;59.83;102597.41;1705986;83;21155;-87
2021/09/07 05:55:06;;;;;;;13.98;4.12;;;;;;;13.16;59.81;102604.28;1706063;84;21150;-89
2021/09/07 05:57:38;;;;;;;9.73;3.93;;;;;;;13.28;59.85;102604.17;1671956;84;21073;-87
2021/09/07 06:00:07;;;;;;;13.13;4.60;;;;;;;13.40;59.77;102605.74;1703684;83;21073;-88
2021/09/07 06:02:43;;;;;;;13.80;4.40;;;;;;;13.51;59.88;102602.19;1705540;83;21052;-87
2021/09/07 06:05:11;;;;;;;14.25;4.58;;;;;;;13.66;59.76;102601.90;1705833;83;21334;-86
2021/09/07 06:07:39;;;;;;;11.70;4.28;;;;;;;13.79;59.63;102608.22;1706785;83;20935;-86
2021/09/07 06:10:09;;;;;;;13.22;4.08;;;;;;;13.92;59.75;102598.03;1707383;82;21064;-86
2021/09/07 06:12:45;;;;;;;9.28;4.72;;;;;;;14.04;59.59;102602.18;1705914;83;21085;-88
2021/09/07 06:15:15;;;;;;;19.12;5.80;;;;;;;14.16;59.42;102604.20;1670512;84;21010;-86
2021/09/07 06:17:52;;;;;;;15.50;5.70;;;;;;;14.29;59.39;102604.43;1683970;83;21327;-89
2021/09/07 06:20:19;;;;;;;7.03;4.08;;;;;;;14.40;59.36;102605.20;1705681;83;21124;-86
2021/09/07 06:22:47;;;;;;;17.80;4.90;;;;;;;14.53;58.94;102607.11;1692993;83;21124;-85
2021/09/07 06:25:16;;;;;;;22.60;5.00;;;;;;;14.71;58.33;102610.52;1693395;82;21057;-87
2021/09/07 06:27:45;;;;;;;7.92;3.72;;;;;;;14.86;58.10;102604.97;1704621;83;21045;-87
2021/09/07 06:30:15;;;;;;;16.00;4.75;;;;;;;15.00;57.85;102606.36;1704585;83;21072;-85
2021/09/07 06:32:43;;;;;;;7.92;4.50;;;;;;;15.14;57.77;102602.09;1705893;84;21033;-88
2021/09/07 06:35:10;;;;;;;10.82;4.10;;;;;;;15.28;57.53;102599.55;1714827;82;21020;-83
2021/09/07 06:37:42;;;;;;;17.23;4.70;;;;;;;15.43;57.21;102608.80;1700732;81;21198;-87
2021/09/07 06:40:10;;;;;;;11.83;4.80;;;;;;;15.55;56.96;102612.08;1676064;84;21120;-86
2021/09/07 06:42:39;;;;;;;9.10;4.62;;;;;;;15.67;56.59;102604.84;1675817;84;21650;-88
2021/09/07 06:45:07;;;;;;;8.98;4.80;;;;;;;15.79;56.37;102615.95;1675916;84;21348;-85
2021/09/07 06:47:42;;;;;;;10.55;4.42;;;;;;;15.89;56.10;102611.84;1675923;84;21561;-86
2021/09/07 06:50:11;;;;;;;11.95;5.12;;;;;;;16.02;55.95;102616.77;1686513;84;21005;-84
2021/09/07 06:52:38;;;;;;;11.03;5.62;;;;;;;16.16;55.70;102617.28;1710807;82;21529;-85
2021/09/07 06:55:12;;;;;;;10.65;6.05;;;;;;;16.29;55.25;102607.77;1696647;83;21182;-83
2021/09/07 06:57:43;;;;;;;25.20;7.80;;;;;;;16.40;55.01;102612.73;1696350;83;21110;-86
2021/09/07 07:00:12;;;;;;;18.05;5.70;;;;;;;16.53;54.92;102614.65;1696996;84;21625;-85
2021/09/07 07:02:43;;;;;;;15.20;4.45;;;;;;;16.65;54.96;102616.09;1697515;83;20998;-88
2021/09/07 07:05:25;;;;;;;7.60;4.08;;;;;;;16.78;54.43;102617.50;1674888;84;21592;-90
2021/09/07 07:07:49;;;;;;;12.63;4.50;;;;;;;16.90;54.25;102618.05;1696066;82;21101;-83
2021/09/07 07:10:16;;;;;;;11.50;3.98;;;;;;;17.02;54.29;102621.69;1697287;84;21323;-86
2021/09/07 07:12:47;;;;;;;11.95;4.55;;;;;;;17.14;54.36;102623.08;1697006;84;21069;-85
2021/09/07 07:15:15;;;;;;;16.25;5.22;;;;;;;17.24;54.07;102617.64;1696955;84;21074;-86
2021/09/07 07:17:47;;;;;;;11.88;5.08;;;;;;;17.34;53.65;102629.24;1703154;83;21053;-89
2021/09/07 07:20:20;;;;;;;11.30;5.28;;;;;;;17.43;53.69;102623.41;1690223;83;21983;-84
2021/09/07 07:22:50;;;;;;;8.58;4.45;;;;;;;17.53;53.43;102626.28;1683030;82;21120;-86
2021/09/07 07:25:24;;;;;;;10.72;4.42;;;;;;;17.64;53.37;102625.64;1690216;83;21053;-86
2021/09/07 07:27:52;;;;;;;7.70;4.35;;;;;;;17.74;53.24;102628.86;1671343;84;21712;-85
2021/09/07 07:30:28;;;;;;;15.78;5.15;;;;;;;17.86;52.62;102628.55;1672202;84;21080;-87
2021/09/07 07:32:55;;;;;;;10.15;4.50;;;;;;;17.97;52.01;102633.45;1684595;84;21800;-86
2021/09/07 07:35:42;;;;;;;7.72;3.67;;;;;;;18.08;51.57;102625.34;1695992;83;21074;-85
2021/09/07 07:38:19;;;;;;;11.15;3.47;;;;;;;18.18;51.51;102627.27;1696722;84;33325;-90
2021/09/07 07:40:46;;;;;;;9.25;5.37;;;;;;;18.30;51.44;102621.65;1694463;83;21109;-86
2021/09/07 07:43:14;;;;;;;7.22;4.33;;;;;;;18.39;51.22;102628.44;1668803;85;21579;-79
2021/09/07 07:45:43;;;;;;;9.90;2.95;;;;;;;18.50;50.70;102636.95;1669025;85;21140;-86
2021/09/07 07:48:10;;;;;;;5.67;2.80;;;;;;;18.62;50.63;102633.48;1675703;83;21446;-86
2021/09/07 07:50:37;;;;;;;7.67;2.95;;;;;;;18.72;50.22;102629.28;1685218;84;21206;-83
2021/09/07 07:53:05;;;;;;;7.25;3.90;;;;;;;18.86;50.17;102634.88;1702752;82;21093;-84
2021/09/07 07:55:39;;;;;;;8.70;3.22;;;;;;;18.93;50.11;102630.41;1703471;84;21030;-87
2021/09/07 07:58:08;;;;;;;5.78;3.25;;;;;;;18.98;49.86;102635.36;1681828;83;21104;-86
2021/09/07 08:00:34;;;;;;;6.10;2.87;;;;;;;19.06;49.85;102634.80;1676615;85;21112;-85
2021/09/07 08:03:01;;;;;;;8.55;2.83;;;;;;;19.17;48.97;102633.58;1685319;84;21061;-82
2021/09/07 08:05:28;;;;;;;12.93;3.67;;;;;;;19.30;48.02;102638.34;1702670;84;21726;-83
2021/09/07 08:07:58;;;;;;;7.03;3.27;;;;;;;19.48;47.02;102635.72;1695782;82;21065;-84
2021/09/07 08:10:31;;;;;;;11.83;3.45;;;;;;;19.60;46.20;102632.67;1693790;84;21144;-83
2021/09/07 08:13:05;;;;;;;6.97;3.10;;;;;;;19.66;46.08;102638.80;1631558;85;21044;-83
2021/09/07 08:15:37;;;;;;;7.28;3.60;;;;;;;19.67;46.42;102639.17;1675872;84;21164;-86
2021/09/07 08:18:06;;;;;;;4.90;2.77;;;;;;;19.63;46.57;102635.08;1675918;85;21061;-83
2021/09/07 08:20:38;;;;;;;6.75;2.65;;;;;;;19.61;46.39;102631.25;1672628;84;21076;-81
2021/09/07 08:23:05;;;;;;;8.60;3.22;;;;;;;19.65;46.71;102630.55;1696430;84;21781;-87
2021/09/07 08:25:36;;;;;;;9.40;5.20;;;;;;;19.72;47.07;102630.48;1699812;84;21020;-90
2021/09/07 08:28:03;;;;;;;42.55;29.55;;;;;;;19.85;47.13;102632.08;1705772;82;21054;-85
2021/09/07 08:30:30;;;;;;;26.35;12.00;;;;;;;20.00;46.63;102630.12;1697357;82;21073;-84
2021/09/07 08:32:57;;;;;;;8.68;4.65;;;;;;;20.14;46.53;102619.83;1680401;84;21108;-82
2021/09/07 08:35:26;;;;;;;8.85;3.60;;;;;;;20.23;46.30;102623.13;1675860;84;21163;-83
2021/09/07 08:37:52;;;;;;;8.15;2.98;;;;;;;20.24;45.92;102618.19;1675194;85;21089;-84
2021/09/07 08:40:19;;;;;;;12.37;3.15;;;;;;;20.20;45.60;102617.58;1692550;84;21037;-81
2021/09/07 08:42:48;;;;;;;7.35;3.65;;;;;;;20.21;45.27;102617.95;1702957;83;21054;-84
2021/09/07 08:45:16;;;;;;;6.05;3.00;;;;;;;20.36;45.21;102615.96;1698954;82;21057;-83
2021/09/07 08:47:44;;;;;;;12.78;2.90;;;;;;;20.54;43.84;102611.46;1713867;82;21129;-84
2021/09/07 08:50:12;;;;;;;9.08;3.00;;;;;;;20.78;43.70;102612.66;1719748;82;21069;-82
2021/09/07 08:52:41;;;;;;;5.87;2.17;;;;;;;21.00;42.53;102611.32;1704938;82;21037;-89
2021/09/07 08:55:08;;;;;;;5.17;2.65;;;;;;;21.25;42.69;102609.42;1701163;83;21113;-79
2021/09/07 08:57:36;;;;;;;5.95;2.58;;;;;;;21.48;42.12;102613.19;1704201;84;21125;-87
2021/09/07 09:00:05;;;;;;;6.95;2.30;;;;;;;21.70;41.06;102614.09;1698692;82;21241;-84
2021/09/07 09:02:47;;;;;;;6.62;2.67;;;;;;;21.85;40.03;102611.50;1696280;84;21101;-79
2021/09/07 09:05:18;;;;;;;5.45;2.55;;;;;;;21.96;39.35;102597.77;1702323;82;21188;-82
2021/09/07 09:07:45;;;;;;;6.70;2.10;;;;;;;22.05;39.26;102609.37;1667850;84;21089;-78
2021/09/07 09:10:21;;;;;;;3.10;2.30;;;;;;;22.21;38.85;102604.47;1672195;84;21114;-80
2021/09/07 09:12:49;;;;;;;5.40;2.20;;;;;;;22.35;38.32;102599.34;1699670;82;21247;-82
2021/09/07 09:15:22;;;;;;;9.35;2.45;;;;;;;22.49;38.16;102593.24;1683377;82;20985;-80
2021/09/07 09:17:54;;;;;;;7.08;2.22;;;;;;;22.64;37.95;102596.36;1679336;84;20946;-81
2021/09/07 09:20:18;;;;;;;7.08;2.47;;;;;;;22.84;37.17;102602.13;1683946;83;21061;-79
2021/09/07 09:22:57;;;;;;;3.70;2.15;;;;;;;22.88;36.81;102595.56;1708260;82;21089;-79
2021/09/07 09:25:38;;;;;;;7.72;3.15;;;;;;;22.91;36.68;102601.92;1696893;84;21692;-83
2021/09/07 09:28:18;;;;;;;4.15;2.20;;;;;;;22.93;36.60;102601.31;1703119;84;21112;-79
2021/09/07 09:30:56;;;;;;;3.02;2.40;;;;;;;23.00;36.54;102600.30;1718611;82;21006;-78
2021/09/07 09:33:29;;;;;;;3.70;2.15;;;;;;;23.22;36.07;102601.88;1734213;82;21058;-84
2021/09/07 09:35:59;;;;;;;7.30;2.33;;;;;;;23.39;35.13;102599.37;1733850;81;20931;-77
2021/09/07 09:38:33;;;;;;;3.22;1.92;;;;;;;23.38;35.04;102604.35;1733875;82;21144;-81
2021/09/07 09:41:06;;;;;;;4.65;2.33;;;;;;;23.46;35.34;102602.35;1724218;82;21101;-81
2021/09/07 09:43:46;;;;;;;4.35;2.60;;;;;;;23.40;35.07;102606.40;1695768;82;21116;-81
2021/09/07 09:46:25;;;;;;;4.95;2.22;;;;;;;23.28;35.62;102603.49;1699870;84;21048;-81
2021/09/07 09:49:13;;;;;;;4.92;2.50;;;;;;;23.54;35.28;102604.69;1689749;84;21097;-80
2021/09/07 09:51:49;;;;;;;5.28;2.50;;;;;;;23.54;35.13;102603.36;1703197;84;21135;-79
2021/09/07 09:54:25;;;;;;;4.42;1.82;;;;;;;23.31;35.00;102595.27;1694208;83;21057;-83
2021/09/07 09:56:52;;;;;;;4.90;2.50;;;;;;;23.07;35.34;102600.11;1699725;84;21058;-79
2021/09/07 09:59:20;;;;;;;4.53;2.80;;;;;;;22.96;35.81;102596.23;1701370;84;21037;-82
2021/09/07 10:01:47;;;;;;;3.30;2.10;;;;;;;23.13;35.75;102589.78;1701267;84;21157;-81
2021/09/07 10:04:19;;;;;;;6.87;2.62;;;;;;;23.80;35.01;102587.73;1700376;83;21632;-83
2021/09/07 10:06:50;;;;;;;7.22;2.70;;;;;;;24.31;33.98;102591.86;1702823;83;28414;-81
2021/09/07 10:09:20;;;;;;;4.33;2.20;;;;;;;24.78;33.25;102585.53;1703991;82;21581;-82
2021/09/07 10:12:12;;;;;;;4.78;2.50;;;;;;;26.29;31.21;102581.55;1703076;84;21061;-80
2021/09/07 10:14:44;;;;;;;5.47;2.47;;;;;;;28.21;28.37;102581.31;1708597;82;20997;-83
2021/09/07 10:17:31;;;;;;;6.30;2.10;;;;;;;30.02;26.37;102584.84;1700255;81;21815;-81
2021/09/07 10:26:02;;;;;;;5.97;2.40;;;;;;;33.82;21.09;102580.33;1729014;82;21081;-78
2021/09/07 10:28:43;;;;;;;4.53;2.60;;;;;;;32.94;21.29;102573.84;1675864;85;21171;-81
2021/09/07 10:31:24;;;;;;;3.75;2.10;;;;;;;31.26;22.50;102574.95;1675871;85;21160;-82
2021/09/07 10:33:58;;;;;;;5.67;2.70;;;;;;;29.66;24.19;102581.95;1676373;84;21432;-80
2021/09/07 10:36:27;;;;;;;6.40;3.12;;;;;;;28.58;25.91;102578.88;1677832;84;21396;-79
2021/09/07 10:38:56;;;;;;;6.92;2.98;;;;;;;27.77;26.90;102577.68;1702492;83;21171;-79
2021/09/07 10:41:35;;;;;;;4.78;2.50;;;;;;;27.06;27.71;102578.72;1705002;84;21178;-80
2021/09/07 10:44:06;;;;;;;4.12;2.35;;;;;;;26.39;28.64;102576.92;1702609;82;22225;-80
2021/09/07 10:46:58;;;;;;;8.43;2.55;;;;;;;25.89;29.27;102581.22;1704896;84;20967;-80
2021/09/07 10:49:47;;;;;;;8.75;2.60;;;;;;;25.62;30.07;102574.20;1704532;84;21060;-81
2021/09/07 10:52:30;;;;;;;6.58;2.50;;;;;;;25.43;30.53;102580.97;1704321;84;21238;-79
2021/09/07 10:55:10;;;;;;;5.28;2.50;;;;;;;25.12;31.14;102580.47;1695987;84;21791;-81
2021/09/07 10:57:46;;;;;;;9.28;2.70;;;;;;;24.75;31.49;102574.72;1698419;84;21187;-82
2021/09/07 11:00:29;;;;;;;9.38;2.70;;;;;;;24.45;31.81;102567.02;1694558;82;21021;-80
2021/09/07 11:03:00;;;;;;;5.80;2.40;;;;;;;24.14;32.39;102571.73;1713376;82;21006;-82
2021/09/07 11:05:34;;;;;;;3.85;2.60;;;;;;;23.86;33.08;102574.39;1733634;82;21061;-80
2021/09/07 11:08:11;;;;;;;4.22;2.10;;;;;;;23.66;32.92;102573.56;1711799;82;21096;-84
2021/09/07 11:10:47;;;;;;;6.42;2.37;;;;;;;23.65;33.10;102562.60;1688891;84;21107;-79
2021/09/07 11:13:31;;;;;;;4.22;2.22;;;;;;;23.83;33.29;102563.59;1699857;83;21544;-80
2021/09/07 11:16:08;;;;;;;4.60;2.27;;;;;;;24.09;33.38;102561.17;1676325;85;21057;-79
2021/09/07 11:18:33;;;;;;;10.35;2.52;;;;;;;24.27;33.01;102563.94;1676660;84;21651;-79
2021/09/07 11:21:03;;;;;;;3.02;2.60;;;;;;;24.41;32.50;102558.17;1679950;84;20965;-83
2021/09/07 11:23:33;;;;;;;3.25;2.37;;;;;;;24.59;32.27;102557.74;1676276;84;21157;-84
2021/09/07 11:26:06;;;;;;;5.90;2.62;;;;;;;24.85;31.53;102552.13;1676149;85;21065;-84
2021/09/07 11:28:36;;;;;;;6.35;2.42;;;;;;;25.55;30.16;102556.70;1676135;85;21591;-79
2021/09/07 11:31:04;;;;;;;4.90;2.08;;;;;;;26.97;28.39;102539.73;1702155;82;21913;-79
2021/09/07 11:33:37;;;;;;;3.75;2.10;;;;;;;28.19;27.07;102545.45;1701430;84;21153;-79
2021/09/07 11:36:08;;;;;;;9.60;2.60;;;;;;;28.57;26.10;102538.97;1702868;83;21127;-78
2021/09/07 11:38:53;;;;;;;7.67;2.50;;;;;;;28.16;26.59;102534.28;1704957;82;20997;-90